EST,Max TemperatureF,Mean TemperatureF,Min TemperatureF,Max Dew PointF,MeanDew PointF,Min DewpointF,Max Humidity, Mean Humidity, Min Humidity, Max Sea Level PressureIn, Mean Sea Level PressureIn, Min Sea Level PressureIn, Max VisibilityMiles, Mean VisibilityMiles, Min VisibilityMiles, Max Wind SpeedMPH, Mean Wind SpeedMPH, Max Gust SpeedMPH,PrecipitationIn, CloudCover, Events, WindDirDegrees
2013-2-1,39,31,23,27,10,-4,68,40,17,30.35,30.17,29.90,10,10,10,16,10,29,0.00,1,,280
2013-2-2,42,32,21,34,17,7,93,58,25,30.36,30.22,30.03,10,10,10,20,3,26,0.00,3,,226
2013-2-3,51,42,32,34,25,19,93,58,30,30.02,29.94,29.86,10,10,10,16,8,29,0.00,2,,274
2013-2-4,50,39,28,27,21,18,80,50,30,30.13,30.04,29.98,10,10,10,8,3,,0.00,1,,229
2013-2-5,64,48,33,34,30,27,93,58,30,29.98,29.94,29.88,10,10,10,14,5,20,0.00,4,,242
2013-2-6,62,45,28,34,27,19,100,62,20,30.21,30.11,29.98,10,10,10,8,1,,0.00,0,,296
2013-2-7,42,38,33,37,32,25,100,79,53,30.29,30.18,30.00,10,8,3,10,5,17,0.45,5,Rain,15
2013-2-8,59,47,33,43,34,27,100,70,35,30.10,29.95,29.87,10,9,2,14,5,22,0.00,4,Rain,307
2013-2-9,59,42,24,28,22,9,100,61,14,30.33,30.24,30.10,10,10,10,7,2,,0.00,0,,296
2013-2-10,55,42,28,43,27,16,100,63,23,30.43,30.32,30.17,10,10,7,8,1,,0.10,2,Rain,174
2013-2-11,55,48,42,54,48,43,100,98,93,30.15,30.04,29.96,10,5,1,15,3,21,0.08,7,Rain,242
2013-2-12,59,49,39,48,32,19,100,58,22,30.10,30.01,29.90,10,9,0,7,2,,0.00,2,Fog-Rain,280
2013-2-13,46,42,33,45,40,32,100,90,66,29.94,29.78,29.66,10,7,1,10,2,16,0.01,6,Rain,271
2013-2-14,51,38,26,34,30,27,100,78,41,30.05,29.99,29.88,10,10,5,12,2,18,0.00,0,,241
2013-2-15,60,43,26,34,30,27,100,64,27,30.09,30.01,29.92,10,10,7,13,2,20,0.00,2,Rain,245
2013-2-16,44,36,28,32,28,19,100,77,61,29.99,29.93,29.82,10,9,0,7,2,,0.03,7,Rain-Snow,319
2013-2-17,41,31,21,19,10,1,86,47,19,30.24,30.12,29.99,10,10,10,15,5,23,0.00,1,,281
2013-2-18,53,36,19,25,19,12,93,54,26,30.36,30.28,30.19,10,10,10,9,2,,0.00,0,,206
2013-2-19,50,42,35,41,31,10,100,72,29,30.20,30.02,29.88,10,9,2,18,4,24,0.15,5,Rain,237
2013-2-20,53,42,30,21,10,5,60,29,15,30.11,30.06,30.01,10,10,10,12,5,20,0.00,0,,277
2013-2-21,59,41,23,39,19,10,93,50,16,30.27,30.15,30.08,10,10,10,7,1,,0.02,1,Rain,261
2013-2-22,41,38,35,37,36,36,100,96,81,30.29,30.21,30.11,10,5,2,7,3,,0.29,8,Rain,10
2013-2-23,42,38,35,43,38,34,100,98,87,30.13,29.95,29.84,10,4,2,7,2,,0.14,8,Rain-Snow,345
2013-2-24,64,50,35,43,32,18,100,62,16,30.02,29.93,29.84,10,7,0,10,3,16,0.00,3,Fog,280
2013-2-25,42,37,32,28,26,23,87,61,52,30.18,30.10,30.02,10,10,10,10,4,,0.00,2,,34
2013-2-26,37,34,32,37,34,23,100,96,56,30.08,29.78,29.59,10,5,0,10,7,20,0.98,8,Fog-Rain-Snow,15
2013-2-27,57,45,33,41,35,32,100,71,41,29.80,29.73,29.64,10,8,1,16,4,21,0.00,3,,240
2013-2-28,48,38,28,34,26,21,100,65,37,29.89,29.80,29.72,10,10,10,12,3,20,0.00,3,,293